Flight Track Log - Related Links

Times and Time Zones

All times are in EST time to prevent confusion due to time zone crossing. See the EJM826 flight status page for this flight to view local times or setup timezone preferences in your user account.


Time Position Orientation Groundspeed Altitude Reporting Facility
EST Latitude Longitude Course Direction KTS MPH feet Rate Location/Type
Thu 10:32:34 PM 29.9983 -90.2883 262° West 170 196 700  Level Houston Center
Thu 10:33:35 PM 29.9906 -90.3497 262° West 197 227 3,100 2,459 Climbing Houston Center
Thu 10:34:36 PM 29.9786 -90.4211 259° West 212 244 5,700 2,780 Climbing Houston Center
Thu 10:35:38 PM 29.9606 -90.5033 256° West 243 280 8,800 2,878 Climbing Houston Center
Thu 10:36:39 PM 29.9472 -90.5861 259° West 259 298 11,600 2,656 Climbing Houston Center
Thu 10:37:40 PM 29.9314 -90.6714 258° West 268 308 14,200 2,311 Climbing Houston Center
Thu 10:38:41 PM 29.9078 -90.7586 253° West 282 325 16,300 1,869 Climbing Houston Center
Thu 10:39:42 PM 29.8844 -90.8492 253° West 295 339 18,000 1,805 Climbing Houston Center
Thu 10:40:44 PM 29.8606 -90.9417 253° West 299 344 20,000 1,805 Climbing Houston Center
Thu 10:41:45 PM 29.8342 -91.0342 252° West 303 349 21,700 1,770 Climbing Houston Center
Thu 10:42:46 PM 29.8222 -91.1347 262° West 317 365 23,600 1,377 Climbing Houston Center
Thu 10:43:47 PM 29.8039 -91.2608 261° West 336 387 24,500 1,475 Climbing Houston Center
Thu 10:44:48 PM 29.7861 -91.3694 259° West 346 398 26,600 2,016 Climbing Houston Center
Thu 10:45:49 PM 29.7697 -91.4744 260° West 335 386 28,600 1,659 Climbing Houston Center
Thu 10:46:51 PM 29.7531 -91.5772 259° West 328 377 30,000 683 Climbing Houston Center
Thu 10:47:52 PM 29.7364 -91.6925 261° West 359 413 30,000  Level Houston Center
Thu 10:48:53 PM 29.7169 -91.8197 260° West 389 448 30,000  Level Houston Center
Thu 10:49:54 PM 29.6961 -91.9483 259° West 406 467 30,000  Level Houston Center
Thu 10:50:55 PM 29.6744 -92.0808 259° West 419 482 30,000  Level Houston Center
Thu 10:51:57 PM 29.6531 -92.2150 260° West 425 489 30,000 -49 Level Houston Center
Thu 10:52:58 PM 29.6314 -92.3497 260° West 428 493 29,900 -541 Descending Houston Center
Thu 10:53:59 PM 29.6097 -92.4831 259° West 424 488 28,900 -934 Descending Houston Center
Thu 10:55:00 PM 29.5881 -92.6111 259° West 411 473 28,000 -443 Descending Houston Center
Thu 10:56:01 PM 29.5644 -92.7631 260° West 403 464 28,000  Level Houston Center
Thu 10:57:03 PM 29.5439 -92.8867 259° West 396 456 28,000  Level Houston Center
Thu 10:58:04 PM 29.5228 -93.0094 259° West 393 452 28,000  Level Houston Center
Thu 10:59:05 PM 29.5019 -93.1317 259° West 390 449 28,000  Level Houston Center
Thu 11:00:06 PM 29.4822 -93.2542 260° West 389 448 28,000  Level Houston Center
Thu 11:01:07 PM 29.4606 -93.3764 259° West 390 449 28,000  Level Houston Center
Thu 11:02:08 PM 29.4400 -93.5000 259° West 394 453 28,000 -590 Level Houston Center
Thu 11:03:09 PM 29.4197 -93.6236 259° West 394 453 26,800 -1,672 Descending Houston Center
Thu 11:04:10 PM 29.3972 -93.7531 259° West 408 470 24,600 -2,361 Descending Houston Center
Thu 11:05:11 PM 29.3725 -93.8964 259° West 414 476 22,000 -2,410 Descending Houston Center
Thu 11:06:12 PM 29.3497 -94.0244 258° West 412 474 19,700 -2,308 Descending Houston Center
Thu 11:07:08 PM 29.3269 -94.1442 258° West 408 470 17,500 -2,323 Descending Houston Center
Thu 11:07:14 PM 29.3275 -94.1517 275° West 408 470 17,300 -2,429 Descending Houston Center
Thu 11:07:50 PM 29.3111 -94.2350 257° West 405 466 15,800 -2,262 Descending Houston Center
Thu 11:08:15 PM 29.3050 -94.2772 261° West 404 465 15,000 -2,459 Descending Houston Center
Thu 11:08:51 PM 29.2881 -94.3628 257° West 396 456 13,300 -2,361 Descending Houston Center
Thu 11:09:16 PM 29.2831 -94.3983 261° West 393 452 12,600 -1,279 Descending Houston Center
Thu 11:09:52 PM 29.2706 -94.4825 260° West 382 440 12,000 -590 Descending Houston Center
Thu 11:10:17 PM 29.2831 -94.5164 293° West 379 436 12,000  Level Houston Center
Thu 11:10:53 PM 29.3192 -94.5914 299° West 385 443 12,000  Level Houston Center
Thu 11:11:18 PM 29.3369 -94.6219 304° West 384 442 12,000 -1,000 Level Houston Center
Thu 11:11:53 PM 29.3664 -94.6883 297° West 329 379 11,000 -1,475 Descending Houston Center
Thu 11:12:19 PM 29.3814 -94.7147 303° West 342 394 10,500 -984 Descending Houston Center
Thu 11:12:54 PM 29.4106 -94.7764 299° West 313 360 10,000 -492 Descending Houston Center
Thu 11:13:20 PM 29.4236 -94.8014 301° West 315 362 10,000 -98 Level Houston Center
Thu 11:13:55 PM 29.4522 -94.8600 299° West 297 342 9,900 -590 Descending Houston Center
Thu 11:14:21 PM 29.4639 -94.8825 301° West 298 343 9,400 -1,967 Descending Houston Center
Thu 11:14:56 PM 29.4914 -94.9392 299° West 267 307 7,900 -1,869 Descending Houston Center
Thu 11:15:22 PM 29.4994 -94.9561 299° West 270 311 7,500 -1,667 Descending Houston Center
Thu 11:15:50 PM 29.5225 -95.0025 300° West 264 304 6,400 -1,475 Descending Houston Center
Thu 11:16:23 PM 29.5422 -95.0408 301° West 259 298 6,000 -393 Descending Houston Center
Thu 11:16:51 PM 29.5586 -95.0750 299° West 241 277 6,000  Level Houston Center
Thu 11:17:24 PM 29.5758 -95.1094 300° West 248 285 6,000  Level Houston Center
Thu 11:17:52 PM 29.5900 -95.1408 297° West 217 250 6,000  Level Houston Center
Thu 11:18:25 PM 29.6014 -95.1675 296° West 222 255 6,000  Level Houston Center
Thu 11:18:53 PM 29.6047 -95.2064 276° West 209 241 6,000  Level Houston Center
Thu 11:19:26 PM 29.6097 -95.2286 285° West 211 243 6,000  Level Houston Center
Thu 11:19:53 PM 29.6150 -95.2722 278° West 209 241 6,000  Level Houston Center
Thu 11:20:27 PM 29.6194 -95.3089 278° West 210 242 6,000  Level Houston Center
Thu 11:20:54 PM 29.6211 -95.3389 274° West 211 243 6,000  Level Houston Center
Thu 11:21:29 PM 29.6292 -95.3758 284° West 214 246 6,000 -627 Level Houston Center
Thu 11:22:01 PM 29.6522 -95.4025 315° West 226 260 5,300 -1,475 Descending Houston Center
Thu 11:22:30 PM 29.6736 -95.4303 312° West 228 262 4,500 -1,475 Descending Houston Center
Thu 11:23:02 PM 29.6953 -95.4597 310° West 241 277 3,800 -1,600 Descending Houston Center
Thu 11:23:30 PM 29.7256 -95.4747 337° Northwest 242 278 2,900 -1,700 Descending Houston Center
Thu 11:24:02 PM 29.7614 -95.4494 31° Northeast 267 307 2,100 -871 Descending Houston Center
Thu 11:24:32 PM 29.7703 -95.4219 70° East 251 289 2,000 -98 Descending Houston Center
Thu 11:25:03 PM 29.7525 -95.3978 130° Southeast 173 199 2,000  Level Houston Center
Thu 11:25:33 PM 29.7364 -95.3844 144° Southeast 195 224 2,000 -98 Level Houston Center
Thu 11:26:04 PM 29.7158 -95.3636 139° Southeast 156 180 1,900 -295 Descending Houston Center
Thu 11:26:34 PM 29.7036 -95.3486 133° Southeast 175 201 1,700 -689 Descending Houston Center
Thu 11:27:05 PM 29.6872 -95.3286 133° Southeast 149 171 1,200 -787 Descending Houston Center
Thu 11:27:35 PM 29.6772 -95.3164 133° Southeast 157 181 900 -600 Descending Houston Center
Thu 11:28:05 PM 29.6678 -95.2972 120° Southeast 115 132 600 -590 Descending Houston Center
Thu 11:28:36 PM 29.6606 -95.2853 125° Southeast 137 158 300 -326 Descending Houston Center
Thu 11:29:37 PM 29.6253 -95.2778 170° South 136 157 100 -197 Descending Houston Center

Login

Don't have an account? Register now (free) for customized features, flight alerts, and more!